sensor_id;sensor_type;location;lat;lon;timestamp;P1;durP1;ratioP1;P2;durP2;ratioP2
14330;SDS011;7249;49.376;11.080;2024-01-07T05:02:25;6.80;;;3.23;;
14330;SDS011;7249;49.376;11.080;2024-01-07T05:04:50;5.90;;;2.87;;
14330;SDS011;7249;49.376;11.080;2024-01-07T05:07:16;4.33;;;3.17;;
14330;SDS011;7249;49.376;11.080;2024-01-07T05:09:41;6.23;;;3.13;;
14330;SDS011;7249;49.376;11.080;2024-01-07T05:12:07;5.60;;;2.63;;
14330;SDS011;7249;49.376;11.080;2024-01-07T05:14:33;6.40;;;2.77;;
14330;SDS011;7249;49.376;11.080;2024-01-07T05:16:58;4.40;;;2.73;;
14330;SDS011;7249;49.376;11.080;2024-01-07T05:19:24;5.93;;;2.90;;
14330;SDS011;7249;49.376;11.080;2024-01-07T05:21:49;4.17;;;2.47;;
14330;SDS011;7249;49.376;11.080;2024-01-07T05:24:15;3.00;;;2.00;;
14330;SDS011;7249;49.376;11.080;2024-01-07T05:26:41;4.40;;;2.50;;
14330;SDS011;7249;49.376;11.080;2024-01-07T05:29:08;4.33;;;2.63;;
14330;SDS011;7249;49.376;11.080;2024-01-07T05:31:34;3.47;;;2.33;;
14330;SDS011;7249;49.376;11.080;2024-01-07T05:33:59;4.30;;;2.30;;
14330;SDS011;7249;49.376;11.080;2024-01-07T05:36:25;3.77;;;2.80;;
14330;SDS011;7249;49.376;11.080;2024-01-07T05:38:50;6.40;;;2.40;;
14330;SDS011;7249;49.376;11.080;2024-01-07T05:41:16;3.07;;;2.30;;
14330;SDS011;7249;49.376;11.080;2024-01-07T05:43:42;4.13;;;2.77;;
14330;SDS011;7249;49.376;11.080;2024-01-07T05:46:07;2.73;;;2.00;;
14330;SDS011;7249;49.376;11.080;2024-01-07T05:48:42;2.70;;;1.80;;
14330;SDS011;7249;49.376;11.080;2024-01-07T05:51:09;3.37;;;2.20;;
14330;SDS011;7249;49.376;11.080;2024-01-07T05:53:35;2.63;;;2.20;;
14330;SDS011;7249;49.376;11.080;2024-01-07T05:56:00;3.50;;;2.43;;
14330;SDS011;7249;49.376;11.080;2024-01-07T05:58:26;3.07;;;2.20;;
14330;SDS011;7249;49.376;11.080;2024-01-07T06:00:51;2.20;;;1.70;;
14330;SDS011;7249;49.376;11.080;2024-01-07T06:03:17;4.53;;;1.97;;
14330;SDS011;7249;49.376;11.080;2024-01-07T06:05:42;3.13;;;2.40;;
14330;SDS011;7249;49.376;11.080;2024-01-07T06:08:08;2.73;;;2.17;;
14330;SDS011;7249;49.376;11.080;2024-01-07T06:10:35;4.07;;;2.27;;
14330;SDS011;7249;49.376;11.080;2024-01-07T06:13:00;3.77;;;2.20;;
14330;SDS011;7249;49.376;11.080;2024-01-07T06:15:28;2.70;;;2.00;;
14330;SDS011;7249;49.376;11.080;2024-01-07T06:17:53;5.23;;;2.10;;
14330;SDS011;7249;49.376;11.080;2024-01-07T06:20:19;3.73;;;1.93;;
14330;SDS011;7249;49.376;11.080;2024-01-07T06:22:45;4.00;;;2.40;;
14330;SDS011;7249;49.376;11.080;2024-01-07T06:25:10;3.70;;;2.33;;
14330;SDS011;7249;49.376;11.080;2024-01-07T06:27:37;3.60;;;2.33;;
14330;SDS011;7249;49.376;11.080;2024-01-07T06:30:03;3.97;;;2.30;;
14330;SDS011;7249;49.376;11.080;2024-01-07T06:32:30;3.93;;;1.97;;
14330;SDS011;7249;49.376;11.080;2024-01-07T06:34:57;3.53;;;2.43;;
14330;SDS011;7249;49.376;11.080;2024-01-07T06:37:23;3.77;;;2.63;;
14330;SDS011;7249;49.376;11.080;2024-01-07T06:39:49;3.93;;;2.40;;
14330;SDS011;7249;49.376;11.080;2024-01-07T06:42:14;4.30;;;2.53;;
14330;SDS011;7249;49.376;11.080;2024-01-07T06:44:40;5.93;;;2.80;;
14330;SDS011;7249;49.376;11.080;2024-01-07T06:47:05;4.10;;;2.10;;
14330;SDS011;7249;49.376;11.080;2024-01-07T06:49:31;4.37;;;2.63;;
14330;SDS011;7249;49.376;11.080;2024-01-07T06:51:57;5.13;;;2.63;;
14330;SDS011;7249;49.376;11.080;2024-01-07T06:54:22;2.83;;;2.13;;
14330;SDS011;7249;49.376;11.080;2024-01-07T06:56:48;3.60;;;2.40;;
14330;SDS011;7249;49.376;11.080;2024-01-07T06:59:13;5.20;;;2.87;;
14330;SDS011;7249;49.376;11.080;2024-01-07T07:01:39;4.87;;;2.80;;
14330;SDS011;7249;49.376;11.080;2024-01-07T07:04:05;4.07;;;2.67;;
14330;SDS011;7249;49.376;11.080;2024-01-07T07:06:31;3.50;;;2.40;;
14330;SDS011;7249;49.376;11.080;2024-01-07T07:08:56;4.20;;;2.50;;
14330;SDS011;7249;49.376;11.080;2024-01-07T07:11:22;4.67;;;2.57;;
14330;SDS011;7249;49.376;11.080;2024-01-07T07:13:47;3.10;;;2.43;;
14330;SDS011;7249;49.376;11.080;2024-01-07T07:16:13;4.23;;;2.40;;
14330;SDS011;7249;49.376;11.080;2024-01-07T07:18:39;5.03;;;2.67;;
14330;SDS011;7249;49.376;11.080;2024-01-07T07:21:05;4.50;;;2.67;;
14330;SDS011;7249;49.376;11.080;2024-01-07T07:23:30;3.53;;;2.30;;
14330;SDS011;7249;49.376;11.080;2024-01-07T07:25:56;4.60;;;2.63;;
14330;SDS011;7249;49.376;11.080;2024-01-07T07:28:21;4.73;;;2.40;;
14330;SDS011;7249;49.376;11.080;2024-01-07T07:30:47;4.77;;;2.80;;
14330;SDS011;7249;49.376;11.080;2024-01-07T07:33:13;5.47;;;2.57;;
14330;SDS011;7249;49.376;11.080;2024-01-07T07:35:39;4.00;;;2.63;;
14330;SDS011;7249;49.376;11.080;2024-01-07T07:38:06;5.10;;;3.17;;
14330;SDS011;7249;49.376;11.080;2024-01-07T07:40:32;4.63;;;3.13;;
14330;SDS011;7249;49.376;11.080;2024-01-07T07:42:58;5.07;;;3.10;;
14330;SDS011;7249;49.376;11.080;2024-01-07T07:45:23;5.43;;;2.93;;
14330;SDS011;7249;49.376;11.080;2024-01-07T07:47:49;3.23;;;2.50;;
14330;SDS011;7249;49.376;11.080;2024-01-07T07:50:15;6.07;;;3.10;;
14330;SDS011;7249;49.376;11.080;2024-01-07T07:52:43;5.47;;;2.53;;
14330;SDS011;7249;49.376;11.080;2024-01-07T07:55:09;5.10;;;2.70;;
14330;SDS011;7249;49.376;11.080;2024-01-07T07:57:35;5.00;;;2.67;;
14330;SDS011;7249;49.376;11.080;2024-01-07T08:00:01;5.53;;;2.70;;
14330;SDS011;7249;49.376;11.080;2024-01-07T08:02:27;7.70;;;3.07;;
14330;SDS011;7249;49.376;11.080;2024-01-07T08:04:53;4.83;;;3.17;;
14330;SDS011;7249;49.376;11.080;2024-01-07T08:07:18;6.63;;;3.60;;
14330;SDS011;7249;49.376;11.080;2024-01-07T08:09:44;5.97;;;3.60;;
14330;SDS011;7249;49.376;11.080;2024-01-07T08:12:10;5.13;;;3.30;;
14330;SDS011;7249;49.376;11.080;2024-01-07T08:14:37;6.40;;;3.10;;
14330;SDS011;7249;49.376;11.080;2024-01-07T08:17:06;5.33;;;2.80;;
14330;SDS011;7249;49.376;11.080;2024-01-07T08:19:32;5.37;;;2.97;;
14330;SDS011;7249;49.376;11.080;2024-01-07T08:21:58;5.67;;;2.80;;
14330;SDS011;7249;49.376;11.080;2024-01-07T08:24:23;5.27;;;2.97;;
14330;SDS011;7249;49.376;11.080;2024-01-07T08:26:49;5.33;;;3.27;;
14330;SDS011;7249;49.376;11.080;2024-01-07T08:29:14;6.20;;;3.63;;
14330;SDS011;7249;49.376;11.080;2024-01-07T08:31:40;7.90;;;3.70;;
14330;SDS011;7249;49.376;11.080;2024-01-07T08:34:07;4.57;;;2.97;;
14330;SDS011;7249;49.376;11.080;2024-01-07T08:36:33;5.67;;;3.17;;
14330;SDS011;7249;49.376;11.080;2024-01-07T08:38:58;5.80;;;3.00;;
14330;SDS011;7249;49.376;11.080;2024-01-07T08:41:25;7.07;;;3.63;;
14330;SDS011;7249;49.376;11.080;2024-01-07T08:43:51;6.17;;;3.47;;
14330;SDS011;7249;49.376;11.080;2024-01-07T08:46:16;6.23;;;3.87;;
14330;SDS011;7249;49.376;11.080;2024-01-07T08:48:45;4.87;;;3.40;;
14330;SDS011;7249;49.376;11.080;2024-01-07T08:51:10;7.30;;;4.63;;
14330;SDS011;7249;49.376;11.080;2024-01-07T08:53:36;6.27;;;3.57;;
14330;SDS011;7249;49.376;11.080;2024-01-07T08:56:01;6.13;;;3.27;;
14330;SDS011;7249;49.376;11.080;2024-01-07T08:58:27;3.67;;;2.73;;
14330;SDS011;7249;49.376;11.080;2024-01-07T09:00:53;6.00;;;4.00;;
14330;SDS011;7249;49.376;11.080;2024-01-07T09:03:18;4.13;;;2.87;;
14330;SDS011;7249;49.376;11.080;2024-01-07T09:05:44;5.63;;;3.27;;
14330;SDS011;7249;49.376;11.080;2024-01-07T09:08:10;6.07;;;2.77;;
14330;SDS011;7249;49.376;11.080;2024-01-07T09:10:36;5.57;;;3.43;;
14330;SDS011;7249;49.376;11.080;2024-01-07T09:13:05;6.77;;;3.03;;
14330;SDS011;7249;49.376;11.080;2024-01-07T09:15:31;4.80;;;2.83;;
14330;SDS011;7249;49.376;11.080;2024-01-07T09:17:57;6.93;;;3.47;;
14330;SDS011;7249;49.376;11.080;2024-01-07T09:20:23;5.50;;;3.10;;
14330;SDS011;7249;49.376;11.080;2024-01-07T09:22:49;8.33;;;3.67;;
14330;SDS011;7249;49.376;11.080;2024-01-07T09:25:14;6.93;;;3.83;;
14330;SDS011;7249;49.376;11.080;2024-01-07T09:27:41;5.07;;;2.93;;
14330;SDS011;7249;49.376;11.080;2024-01-07T09:30:08;8.43;;;3.70;;
14330;SDS011;7249;49.376;11.080;2024-01-07T09:32:35;4.87;;;3.43;;
14330;SDS011;7249;49.376;11.080;2024-01-07T09:35:01;4.70;;;3.40;;
14330;SDS011;7249;49.376;11.080;2024-01-07T09:37:27;8.23;;;3.77;;
14330;SDS011;7249;49.376;11.080;2024-01-07T09:39:53;7.93;;;3.57;;
14330;SDS011;7249;49.376;11.080;2024-01-07T09:42:19;6.97;;;3.57;;
14330;SDS011;7249;49.376;11.080;2024-01-07T09:44:45;6.07;;;4.20;;
14330;SDS011;7249;49.376;11.080;2024-01-07T09:47:12;9.27;;;4.80;;
14330;SDS011;7249;49.376;11.080;2024-01-07T09:49:38;8.17;;;3.33;;
14330;SDS011;7249;49.376;11.080;2024-01-07T09:52:04;8.03;;;3.33;;
14330;SDS011;7249;49.376;11.080;2024-01-07T09:54:30;6.03;;;4.20;;
14330;SDS011;7249;49.376;11.080;2024-01-07T09:57:01;7.80;;;4.23;;
14330;SDS011;7249;49.376;11.080;2024-01-07T09:59:28;5.93;;;3.07;;
14330;SDS011;7249;49.376;11.080;2024-01-07T10:01:54;7.33;;;4.20;;
14330;SDS011;7249;49.376;11.080;2024-01-07T10:04:23;7.07;;;4.00;;
14330;SDS011;7249;49.376;11.080;2024-01-07T10:06:50;5.83;;;3.50;;
14330;SDS011;7249;49.376;11.080;2024-01-07T10:09:16;5.87;;;3.57;;
14330;SDS011;7249;49.376;11.080;2024-01-07T10:11:46;5.43;;;3.23;;
14330;SDS011;7249;49.376;11.080;2024-01-07T10:14:11;6.80;;;3.50;;
14330;SDS011;7249;49.376;11.080;2024-01-07T10:16:37;7.57;;;3.40;;
14330;SDS011;7249;49.376;11.080;2024-01-07T10:19:03;8.90;;;4.37;;
14330;SDS011;7249;49.376;11.080;2024-01-07T10:21:29;7.97;;;3.47;;
14330;SDS011;7249;49.376;11.080;2024-01-07T10:24:06;6.83;;;4.03;;
14330;SDS011;7249;49.376;11.080;2024-01-07T10:26:34;6.40;;;3.07;;
14330;SDS011;7249;49.376;11.080;2024-01-07T10:29:00;6.67;;;3.57;;
14330;SDS011;7249;49.376;11.080;2024-01-07T10:31:25;7.53;;;3.73;;
14330;SDS011;7249;49.376;11.080;2024-01-07T10:33:52;5.87;;;3.60;;
14330;SDS011;7249;49.376;11.080;2024-01-07T10:36:17;8.17;;;3.60;;
14330;SDS011;7249;49.376;11.080;2024-01-07T10:38:45;7.90;;;3.60;;
14330;SDS011;7249;49.376;11.080;2024-01-07T10:41:11;8.13;;;3.70;;
14330;SDS011;7249;49.376;11.080;2024-01-07T10:43:37;5.67;;;3.53;;
14330;SDS011;7249;49.376;11.080;2024-01-07T10:46:05;8.10;;;3.43;;
14330;SDS011;7249;49.376;11.080;2024-01-07T10:48:31;8.70;;;3.90;;
14330;SDS011;7249;49.376;11.080;2024-01-07T10:51:02;7.13;;;3.23;;
14330;SDS011;7249;49.376;11.080;2024-01-07T10:53:31;7.40;;;3.97;;
14330;SDS011;7249;49.376;11.080;2024-01-07T10:56:05;7.53;;;4.43;;
14330;SDS011;7249;49.376;11.080;2024-01-07T10:58:36;4.53;;;3.63;;
14330;SDS011;7249;49.376;11.080;2024-01-07T11:01:04;7.33;;;3.27;;
14330;SDS011;7249;49.376;11.080;2024-01-07T11:03:41;7.50;;;3.30;;
14330;SDS011;7249;49.376;11.080;2024-01-07T11:06:39;10.20;;;4.00;;
14330;SDS011;7249;49.376;11.080;2024-01-07T11:09:18;8.77;;;4.23;;
14330;SDS011;7249;49.376;11.080;2024-01-07T11:11:55;9.03;;;3.70;;
14330;SDS011;7249;49.376;11.080;2024-01-07T11:17:05;10.57;;;4.50;;
14330;SDS011;7249;49.376;11.080;2024-01-07T11:19:31;8.40;;;4.33;;
14330;SDS011;7249;49.376;11.080;2024-01-07T11:22:31;6.93;;;3.80;;
14330;SDS011;7249;49.376;11.080;2024-01-07T11:24:53;10.20;;;4.23;;
14330;SDS011;7249;49.376;11.080;2024-01-07T11:30:20;6.23;;;3.67;;
14330;SDS011;7249;49.376;11.080;2024-01-07T11:32:46;8.03;;;4.13;;
14330;SDS011;7249;49.376;11.080;2024-01-07T11:35:14;7.10;;;4.53;;
14330;SDS011;7249;49.376;11.080;2024-01-07T11:37:41;7.50;;;3.77;;
14330;SDS011;7249;49.376;11.080;2024-01-07T11:40:07;7.00;;;3.70;;
14330;SDS011;7249;49.376;11.080;2024-01-07T11:42:33;7.47;;;3.83;;
14330;SDS011;7249;49.376;11.080;2024-01-07T11:44:59;7.60;;;4.00;;
14330;SDS011;7249;49.376;11.080;2024-01-07T11:47:25;6.73;;;3.57;;
14330;SDS011;7249;49.376;11.080;2024-01-07T11:49:53;5.70;;;4.13;;
14330;SDS011;7249;49.376;11.080;2024-01-07T11:52:19;8.15;;;5.03;;
14330;SDS011;7249;49.376;11.080;2024-01-07T11:54:46;7.47;;;5.17;;
14330;SDS011;7249;49.376;11.080;2024-01-07T11:57:12;6.77;;;4.13;;
14330;SDS011;7249;49.376;11.080;2024-01-07T11:59:38;6.63;;;4.20;;
14330;SDS011;7249;49.376;11.080;2024-01-07T12:02:04;7.83;;;3.70;;
14330;SDS011;7249;49.376;11.080;2024-01-07T12:04:31;5.27;;;3.20;;
14330;SDS011;7249;49.376;11.080;2024-01-07T12:06:57;7.10;;;4.60;;
14330;SDS011;7249;49.376;11.080;2024-01-07T12:09:23;6.37;;;3.50;;
14330;SDS011;7249;49.376;11.080;2024-01-07T12:11:52;5.90;;;4.00;;
14330;SDS011;7249;49.376;11.080;2024-01-07T12:14:18;6.67;;;4.03;;
14330;SDS011;7249;49.376;11.080;2024-01-07T12:16:44;6.13;;;3.90;;
14330;SDS011;7249;49.376;11.080;2024-01-07T12:19:12;5.97;;;3.53;;
14330;SDS011;7249;49.376;11.080;2024-01-07T12:21:38;8.23;;;4.83;;
14330;SDS011;7249;49.376;11.080;2024-01-07T12:24:05;8.07;;;4.10;;
14330;SDS011;7249;49.376;11.080;2024-01-07T12:26:30;6.83;;;3.27;;
14330;SDS011;7249;49.376;11.080;2024-01-07T12:28:59;5.80;;;3.47;;
14330;SDS011;7249;49.376;11.080;2024-01-07T12:31:31;5.70;;;3.77;;
14330;SDS011;7249;49.376;11.080;2024-01-07T12:33:58;6.73;;;3.70;;
14330;SDS011;7249;49.376;11.080;2024-01-07T12:36:24;10.10;;;4.70;;
14330;SDS011;7249;49.376;11.080;2024-01-07T12:38:50;6.50;;;3.67;;
14330;SDS011;7249;49.376;11.080;2024-01-07T12:41:21;5.70;;;2.93;;
14330;SDS011;7249;49.376;11.080;2024-01-07T12:43:47;5.87;;;3.77;;
14330;SDS011;7249;49.376;11.080;2024-01-07T12:46:13;5.13;;;3.87;;
14330;SDS011;7249;49.376;11.080;2024-01-07T12:48:39;5.73;;;3.57;;
14330;SDS011;7249;49.376;11.080;2024-01-07T12:51:05;7.37;;;3.30;;
14330;SDS011;7249;49.376;11.080;2024-01-07T12:53:31;5.60;;;3.57;;
14330;SDS011;7249;49.376;11.080;2024-01-07T12:55:57;4.17;;;3.00;;
14330;SDS011;7249;49.376;11.080;2024-01-07T12:58:22;6.67;;;3.83;;
14330;SDS011;7249;49.376;11.080;2024-01-07T13:00:48;6.13;;;3.80;;
14330;SDS011;7249;49.376;11.080;2024-01-07T13:03:13;6.67;;;3.20;;
14330;SDS011;7249;49.376;11.080;2024-01-07T13:05:45;5.30;;;3.10;;
14330;SDS011;7249;49.376;11.080;2024-01-07T13:08:14;6.93;;;3.50;;
14330;SDS011;7249;49.376;11.080;2024-01-07T13:10:40;4.87;;;3.07;;
14330;SDS011;7249;49.376;11.080;2024-01-07T13:13:06;6.27;;;3.00;;
14330;SDS011;7249;49.376;11.080;2024-01-07T13:15:32;5.03;;;3.17;;
14330;SDS011;7249;49.376;11.080;2024-01-07T13:17:57;4.87;;;3.10;;
14330;SDS011;7249;49.376;11.080;2024-01-07T13:20:23;6.53;;;3.00;;
14330;SDS011;7249;49.376;11.080;2024-01-07T13:22:49;4.23;;;2.57;;
14330;SDS011;7249;49.376;11.080;2024-01-07T13:25:15;5.40;;;3.07;;
14330;SDS011;7249;49.376;11.080;2024-01-07T13:27:40;4.23;;;2.90;;
14330;SDS011;7249;49.376;11.080;2024-01-07T13:30:07;5.67;;;3.10;;
14330;SDS011;7249;49.376;11.080;2024-01-07T13:32:34;8.53;;;3.03;;
14330;SDS011;7249;49.376;11.080;2024-01-07T13:35:01;4.27;;;2.70;;
14330;SDS011;7249;49.376;11.080;2024-01-07T13:37:28;4.90;;;3.00;;
14330;SDS011;7249;49.376;11.080;2024-01-07T13:39:53;4.07;;;2.83;;
14330;SDS011;7249;49.376;11.080;2024-01-07T13:42:19;4.07;;;2.60;;
14330;SDS011;7249;49.376;11.080;2024-01-07T13:44:44;8.70;;;3.10;;
14330;SDS011;7249;49.376;11.080;2024-01-07T13:47:12;4.13;;;2.40;;
14330;SDS011;7249;49.376;11.080;2024-01-07T13:49:39;4.37;;;2.47;;
14330;SDS011;7249;49.376;11.080;2024-01-07T13:52:05;7.03;;;3.30;;
14330;SDS011;7249;49.376;11.080;2024-01-07T13:54:31;4.43;;;2.43;;
14330;SDS011;7249;49.376;11.080;2024-01-07T13:56:56;2.90;;;2.27;;
14330;SDS011;7249;49.376;11.080;2024-01-07T13:59:22;4.57;;;2.60;;
14330;SDS011;7249;49.376;11.080;2024-01-07T14:01:48;3.53;;;2.50;;
14330;SDS011;7249;49.376;11.080;2024-01-07T14:04:14;5.00;;;2.93;;
14330;SDS011;7249;49.376;11.080;2024-01-07T14:06:40;4.10;;;2.70;;
14330;SDS011;7249;49.376;11.080;2024-01-07T14:09:05;5.53;;;2.80;;
14330;SDS011;7249;49.376;11.080;2024-01-07T14:11:33;4.67;;;2.37;;
14330;SDS011;7249;49.376;11.080;2024-01-07T14:13:59;5.20;;;2.23;;
14330;SDS011;7249;49.376;11.080;2024-01-07T14:16:26;7.23;;;3.33;;
14330;SDS011;7249;49.376;11.080;2024-01-07T14:18:51;4.30;;;2.47;;
14330;SDS011;7249;49.376;11.080;2024-01-07T14:21:17;5.30;;;2.67;;
14330;SDS011;7249;49.376;11.080;2024-01-07T14:23:43;4.07;;;2.43;;
14330;SDS011;7249;49.376;11.080;2024-01-07T14:26:08;4.67;;;2.87;;
14330;SDS011;7249;49.376;11.080;2024-01-07T14:28:34;4.67;;;3.10;;
14330;SDS011;7249;49.376;11.080;2024-01-07T14:31:00;3.47;;;2.60;;
14330;SDS011;7249;49.376;11.080;2024-01-07T14:33:26;2.60;;;2.30;;
14330;SDS011;7249;49.376;11.080;2024-01-07T14:35:52;5.97;;;2.83;;
14330;SDS011;7249;49.376;11.080;2024-01-07T14:38:18;5.17;;;2.70;;
14330;SDS011;7249;49.376;11.080;2024-01-07T14:40:43;3.53;;;2.50;;
14330;SDS011;7249;49.376;11.080;2024-01-07T14:43:11;3.40;;;2.20;;
14330;SDS011;7249;49.376;11.080;2024-01-07T14:45:37;7.30;;;2.77;;
14330;SDS011;7249;49.376;11.080;2024-01-07T14:48:03;4.40;;;2.33;;
14330;SDS011;7249;49.376;11.080;2024-01-07T14:50:29;2.40;;;2.17;;
14330;SDS011;7249;49.376;11.080;2024-01-07T14:52:55;3.20;;;2.17;;
14330;SDS011;7249;49.376;11.080;2024-01-07T14:55:20;5.73;;;2.57;;
14330;SDS011;7249;49.376;11.080;2024-01-07T14:57:46;7.57;;;3.03;;
14330;SDS011;7249;49.376;11.080;2024-01-07T15:00:12;3.47;;;2.23;;
14330;SDS011;7249;49.376;11.080;2024-01-07T15:02:38;3.33;;;2.40;;
14330;SDS011;7249;49.376;11.080;2024-01-07T15:05:04;6.20;;;2.90;;
14330;SDS011;7249;49.376;11.080;2024-01-07T15:07:30;2.87;;;2.10;;
14330;SDS011;7249;49.376;11.080;2024-01-07T15:09:56;4.87;;;2.63;;
14330;SDS011;7249;49.376;11.080;2024-01-07T15:12:23;3.10;;;1.93;;
14330;SDS011;7249;49.376;11.080;2024-01-07T15:14:49;3.37;;;2.60;;
14330;SDS011;7249;49.376;11.080;2024-01-07T15:17:14;2.80;;;2.23;;
14330;SDS011;7249;49.376;11.080;2024-01-07T15:19:43;4.23;;;2.20;;
14330;SDS011;7249;49.376;11.080;2024-01-07T15:22:10;5.13;;;3.37;;
14330;SDS011;7249;49.376;11.080;2024-01-07T15:24:36;3.37;;;2.33;;
14330;SDS011;7249;49.376;11.080;2024-01-07T15:27:02;2.93;;;2.67;;
14330;SDS011;7249;49.376;11.080;2024-01-07T15:29:27;3.47;;;2.27;;
14330;SDS011;7249;49.376;11.080;2024-01-07T15:31:53;4.20;;;2.50;;
14330;SDS011;7249;49.376;11.080;2024-01-07T15:34:19;2.87;;;2.40;;
14330;SDS011;7249;49.376;11.080;2024-01-07T15:36:44;3.43;;;2.20;;
14330;SDS011;7249;49.376;11.080;2024-01-07T15:39:10;3.53;;;2.47;;
14330;SDS011;7249;49.376;11.080;2024-01-07T15:41:35;6.30;;;2.60;;
14330;SDS011;7249;49.376;11.080;2024-01-07T15:44:01;2.80;;;2.33;;
14330;SDS011;7249;49.376;11.080;2024-01-07T15:46:27;3.60;;;2.20;;
14330;SDS011;7249;49.376;11.080;2024-01-07T15:48:53;5.23;;;2.90;;
14330;SDS011;7249;49.376;11.080;2024-01-07T15:51:18;2.80;;;2.20;;
14330;SDS011;7249;49.376;11.080;2024-01-07T15:53:44;4.27;;;2.47;;
14330;SDS011;7249;49.376;11.080;2024-01-07T15:56:10;7.90;;;3.13;;
14330;SDS011;7249;49.376;11.080;2024-01-07T15:58:37;4.83;;;2.83;;
14330;SDS011;7249;49.376;11.080;2024-01-07T16:01:03;3.10;;;2.30;;
14330;SDS011;7249;49.376;11.080;2024-01-07T16:03:29;3.47;;;2.50;;
14330;SDS011;7249;49.376;11.080;2024-01-07T16:05:55;2.50;;;2.30;;
14330;SDS011;7249;49.376;11.080;2024-01-07T16:08:21;4.80;;;2.50;;
14330;SDS011;7249;49.376;11.080;2024-01-07T16:10:50;5.33;;;2.77;;
14330;SDS011;7249;49.376;11.080;2024-01-07T16:13:16;4.00;;;2.70;;
14330;SDS011;7249;49.376;11.080;2024-01-07T16:15:43;3.40;;;2.60;;
14330;SDS011;7249;49.376;11.080;2024-01-07T16:18:08;2.53;;;2.13;;
14330;SDS011;7249;49.376;11.080;2024-01-07T16:20:34;3.53;;;2.27;;
14330;SDS011;7249;49.376;11.080;2024-01-07T16:22:59;3.63;;;2.10;;
14330;SDS011;7249;49.376;11.080;2024-01-07T16:25:26;4.03;;;2.60;;
14330;SDS011;7249;49.376;11.080;2024-01-07T16:27:51;4.27;;;2.20;;
14330;SDS011;7249;49.376;11.080;2024-01-07T16:30:17;2.83;;;2.40;;
14330;SDS011;7249;49.376;11.080;2024-01-07T16:32:44;4.17;;;2.37;;
14330;SDS011;7249;49.376;11.080;2024-01-07T16:35:10;3.00;;;2.30;;
14330;SDS011;7249;49.376;11.080;2024-01-07T16:37:36;3.67;;;2.27;;
14330;SDS011;7249;49.376;11.080;2024-01-07T16:40:03;1.73;;;1.63;;
14330;SDS011;7249;49.376;11.080;2024-01-07T16:42:29;5.93;;;2.53;;
14330;SDS011;7249;49.376;11.080;2024-01-07T16:44:56;2.80;;;1.80;;
14330;SDS011;7249;49.376;11.080;2024-01-07T16:47:22;3.03;;;2.50;;
14330;SDS011;7249;49.376;11.080;2024-01-07T16:49:48;5.70;;;2.40;;
14330;SDS011;7249;49.376;11.080;2024-01-07T16:52:13;5.07;;;2.30;;
14330;SDS011;7249;49.376;11.080;2024-01-07T16:54:39;2.10;;;1.90;;
14330;SDS011;7249;49.376;11.080;2024-01-07T16:57:06;3.73;;;2.53;;
14330;SDS011;7249;49.376;11.080;2024-01-07T16:59:32;3.30;;;1.90;;
14330;SDS011;7249;49.376;11.080;2024-01-07T17:01:59;2.33;;;2.13;;
14330;SDS011;7249;49.376;11.080;2024-01-07T17:04:24;2.17;;;1.97;;
14330;SDS011;7249;49.376;11.080;2024-01-07T17:06:50;2.70;;;2.10;;
14330;SDS011;7249;49.376;11.080;2024-01-07T17:09:16;4.43;;;2.23;;
14330;SDS011;7249;49.376;11.080;2024-01-07T17:11:42;4.00;;;2.13;;
14330;SDS011;7249;49.376;11.080;2024-01-07T17:14:08;7.07;;;2.30;;
14330;SDS011;7249;49.376;11.080;2024-01-07T17:16:34;3.03;;;1.90;;
14330;SDS011;7249;49.376;11.080;2024-01-07T17:18:59;7.53;;;2.50;;
14330;SDS011;7249;49.376;11.080;2024-01-07T17:21:25;2.10;;;1.90;;
14330;SDS011;7249;49.376;11.080;2024-01-07T17:23:51;2.27;;;2.00;;
14330;SDS011;7249;49.376;11.080;2024-01-07T17:26:18;1.83;;;1.47;;
14330;SDS011;7249;49.376;11.080;2024-01-07T17:28:44;3.67;;;2.20;;
14330;SDS011;7249;49.376;11.080;2024-01-07T17:31:10;2.47;;;2.07;;
14330;SDS011;7249;49.376;11.080;2024-01-07T17:33:36;2.93;;;2.27;;
14330;SDS011;7249;49.376;11.080;2024-01-07T17:36:03;2.93;;;2.40;;
14330;SDS011;7249;49.376;11.080;2024-01-07T17:38:29;2.00;;;1.90;;
14330;SDS011;7249;49.376;11.080;2024-01-07T17:40:55;4.10;;;2.13;;
14330;SDS011;7249;49.376;11.080;2024-01-07T17:43:20;4.00;;;2.10;;
14330;SDS011;7249;49.376;11.080;2024-01-07T17:45:47;4.90;;;2.63;;
14330;SDS011;7249;49.376;11.080;2024-01-07T17:48:13;2.90;;;1.87;;
14330;SDS011;7249;49.376;11.080;2024-01-07T17:50:39;4.00;;;3.27;;
14330;SDS011;7249;49.376;11.080;2024-01-07T17:53:08;2.43;;;1.90;;
14330;SDS011;7249;49.376;11.080;2024-01-07T17:55:35;2.17;;;1.97;;
14330;SDS011;7249;49.376;11.080;2024-01-07T17:58:01;2.73;;;2.10;;
14330;SDS011;7249;49.376;11.080;2024-01-07T18:00:27;2.50;;;2.07;;
14330;SDS011;7249;49.376;11.080;2024-01-07T18:02:54;3.73;;;1.80;;
14330;SDS011;7249;49.376;11.080;2024-01-07T18:05:20;2.27;;;1.80;;
14330;SDS011;7249;49.376;11.080;2024-01-07T18:07:46;2.20;;;2.00;;
14330;SDS011;7249;49.376;11.080;2024-01-07T18:10:12;2.23;;;1.53;;
14330;SDS011;7249;49.376;11.080;2024-01-07T18:12:37;1.70;;;1.53;;
14330;SDS011;7249;49.376;11.080;2024-01-07T18:15:03;2.37;;;1.77;;
14330;SDS011;7249;49.376;11.080;2024-01-07T18:17:29;3.17;;;1.90;;
14330;SDS011;7249;49.376;11.080;2024-01-07T18:19:55;1.67;;;1.50;;
14330;SDS011;7249;49.376;11.080;2024-01-07T18:22:21;1.90;;;1.80;;
14330;SDS011;7249;49.376;11.080;2024-01-07T18:24:46;1.77;;;1.67;;
14330;SDS011;7249;49.376;11.080;2024-01-07T18:27:14;1.93;;;1.67;;
14330;SDS011;7249;49.376;11.080;2024-01-07T18:29:40;2.23;;;1.70;;
14330;SDS011;7249;49.376;11.080;2024-01-07T18:32:06;2.20;;;2.00;;
14330;SDS011;7249;49.376;11.080;2024-01-07T18:34:33;4.03;;;2.40;;
14330;SDS011;7249;49.376;11.080;2024-01-07T18:37:00;2.30;;;2.00;;
14330;SDS011;7249;49.376;11.080;2024-01-07T18:39:25;2.87;;;1.80;;
14330;SDS011;7249;49.376;11.080;2024-01-07T18:41:51;2.03;;;1.70;;
14330;SDS011;7249;49.376;11.080;2024-01-07T18:44:19;2.27;;;1.90;;
14330;SDS011;7249;49.376;11.080;2024-01-07T18:46:45;2.10;;;1.30;;
14330;SDS011;7249;49.376;11.080;2024-01-07T18:49:11;3.90;;;2.10;;
14330;SDS011;7249;49.376;11.080;2024-01-07T18:51:40;2.00;;;1.63;;
14330;SDS011;7249;49.376;11.080;2024-01-07T18:54:06;2.10;;;1.80;;
14330;SDS011;7249;49.376;11.080;2024-01-07T18:56:32;6.10;;;4.13;;
14330;SDS011;7249;49.376;11.080;2024-01-07T18:58:58;2.23;;;1.93;;
14330;SDS011;7249;49.376;11.080;2024-01-07T19:01:24;2.53;;;1.80;;
14330;SDS011;7249;49.376;11.080;2024-01-07T19:03:49;2.07;;;1.70;;
14330;SDS011;7249;49.376;11.080;2024-01-07T19:06:15;2.80;;;2.10;;
14330;SDS011;7249;49.376;11.080;2024-01-07T19:08:40;4.10;;;1.90;;
14330;SDS011;7249;49.376;11.080;2024-01-07T19:11:06;1.50;;;1.40;;
14330;SDS011;7249;49.376;11.080;2024-01-07T19:13:32;1.63;;;1.47;;
14330;SDS011;7249;49.376;11.080;2024-01-07T19:15:58;1.43;;;1.33;;
14330;SDS011;7249;49.376;11.080;2024-01-07T19:18:24;1.93;;;1.63;;
14330;SDS011;7249;49.376;11.080;2024-01-07T19:20:51;2.57;;;1.60;;
14330;SDS011;7249;49.376;11.080;2024-01-07T19:23:17;2.00;;;1.70;;
14330;SDS011;7249;49.376;11.080;2024-01-07T19:25:43;1.37;;;1.27;;
14330;SDS011;7249;49.376;11.080;2024-01-07T19:28:10;4.23;;;2.73;;
14330;SDS011;7249;49.376;11.080;2024-01-07T19:30:36;1.87;;;1.50;;
14330;SDS011;7249;49.376;11.080;2024-01-07T19:33:03;1.67;;;1.57;;
14330;SDS011;7249;49.376;11.080;2024-01-07T19:35:29;2.17;;;1.57;;
14330;SDS011;7249;49.376;11.080;2024-01-07T19:37:55;1.70;;;1.40;;
14330;SDS011;7249;49.376;11.080;2024-01-07T19:40:24;2.07;;;1.60;;
14330;SDS011;7249;49.376;11.080;2024-01-07T19:42:50;1.97;;;1.50;;
14330;SDS011;7249;49.376;11.080;2024-01-07T19:45:17;1.50;;;1.40;;
14330;SDS011;7249;49.376;11.080;2024-01-07T19:47:43;1.40;;;1.30;;
14330;SDS011;7249;49.376;11.080;2024-01-07T19:50:09;1.43;;;1.33;;